Time;durP1;ratioP1;P1;durP2;ratioP2;P2;SDS_P1;SDS_P2;PMS_P1;PMS_P2;Temp;Humidity;BMP_temperature;BMP_pressure;BME280_temperature;BME280_humidity;BME280_pressure;Samples;Min_cycle;Max_cycle;Signal;HPM_P1;HPM_P2
2022/10/26 00:02:24;;;;;;;16.77;9.30;;;11.50;99.90;;;;;;5076120;28;20040;-66
2022/10/26 00:04:50;;;;;;;13.63;8.53;;;11.50;99.90;;;;;;5075888;28;20135;-66
2022/10/26 00:07:16;;;;;;;18.67;9.87;;;11.50;99.90;;;;;;5075784;28;20040;-66
2022/10/26 00:09:41;;;;;;;11.93;8.77;;;11.50;99.90;;;;;;5075740;28;20583;-66
2022/10/26 00:12:08;;;;;;;16.23;9.40;;;11.50;99.90;;;;;;5075892;28;20049;-66
2022/10/26 00:14:34;;;;;;;13.07;8.87;;;11.40;99.90;;;;;;5075709;28;20036;-67
2022/10/26 00:16:59;;;;;;;16.10;9.73;;;11.40;99.90;;;;;;5075661;28;20274;-67
2022/10/26 00:19:25;;;;;;;14.13;9.47;;;11.40;99.90;;;;;;5076113;28;20285;-66
2022/10/26 00:21:51;;;;;;;17.97;10.10;;;11.40;99.90;;;;;;5075550;28;20617;-66
2022/10/26 00:24:17;;;;;;;14.30;9.50;;;11.40;99.90;;;;;;5075402;28;20520;-66
2022/10/26 00:26:43;;;;;;;16.33;9.10;;;11.40;99.90;;;;;;5075397;28;20036;-66
2022/10/26 00:29:10;;;;;;;13.70;9.13;;;11.40;99.90;;;;;;5075264;28;20055;-67
2022/10/26 00:31:36;;;;;;;14.77;9.40;;;11.40;99.90;;;;;;5075671;28;20102;-67
2022/10/26 00:34:02;;;;;;;15.80;9.10;;;11.30;99.90;;;;;;5075685;28;20286;-66
2022/10/26 00:36:28;;;;;;;15.60;9.80;;;11.30;99.90;;;;;;5074591;28;20046;-66
2022/10/26 00:38:55;;;;;;;15.77;9.47;;;11.30;99.90;;;;;;5075352;28;20488;-66
2022/10/26 00:41:24;;;;;;;15.30;10.00;;;11.30;99.90;;;;;;5075282;28;20040;-66
2022/10/26 00:43:51;;;;;;;16.87;9.67;;;11.20;99.90;;;;;;5075090;28;20365;-66
2022/10/26 00:46:33;;;;;;;15.97;10.10;;;11.20;99.90;;;;;;5075495;28;20278;-66
2022/10/26 00:49:03;;;;;;;13.87;9.90;;;11.20;99.90;;;;;;5075154;28;20332;-66
2022/10/26 00:51:43;;;;;;;18.70;9.63;;;11.20;99.90;;;;;;5075499;28;20282;-66
2022/10/26 00:54:17;;;;;;;13.77;8.90;;;11.10;99.90;;;;;;5074844;28;20771;-66
2022/10/26 00:56:44;;;;;;;16.47;10.20;;;11.10;99.90;;;;;;5074951;28;20289;-66
2022/10/26 00:59:13;;;;;;;15.20;10.40;;;11.10;99.90;;;;;;5075216;28;20283;-66
2022/10/26 01:01:42;;;;;;;16.13;9.30;;;11.10;99.90;;;;;;5074734;28;20303;-67
2022/10/26 01:04:09;;;;;;;15.57;9.70;;;11.00;99.90;;;;;;5075116;28;20415;-66
2022/10/26 01:06:36;;;;;;;17.30;10.90;;;11.00;99.90;;;;;;5074854;28;20321;-66
2022/10/26 01:09:02;;;;;;;14.27;9.73;;;10.90;99.90;;;;;;5073988;28;20377;-66
2022/10/26 01:11:28;;;;;;;15.70;10.07;;;11.00;99.90;;;;;;5074933;28;20600;-66
2022/10/26 01:13:55;;;;;;;13.27;9.50;;;10.90;99.90;;;;;;5074661;28;20278;-66
2022/10/26 01:16:27;;;;;;;21.30;10.20;;;11.00;99.90;;;;;;5075063;28;20055;-66
2022/10/26 01:19:30;;;;;;;15.13;8.87;;;11.00;99.90;;;;;;5074562;28;20706;-66
2022/10/26 01:22:19;;;;;;;13.97;8.97;;;11.00;99.90;;;;;;5074129;28;20759;-66
2022/10/26 01:24:53;;;;;;;12.17;9.50;;;11.00;99.90;;;;;;5074479;28;20344;-66
2022/10/26 01:27:25;;;;;;;20.70;9.82;;;11.00;99.90;;;;;;5074686;28;20365;-66
2022/10/26 01:30:18;;;;;;;17.50;10.40;;;10.90;99.90;;;;;;5074431;28;20389;-66
2022/10/26 01:33:17;;;;;;;13.97;9.40;;;10.90;99.90;;;;;;5072793;28;20802;-66
2022/10/26 01:35:46;;;;;;;19.20;9.40;;;10.90;99.90;;;;;;5074241;28;20834;-67
2022/10/26 01:38:32;;;;;;;14.37;9.07;;;10.80;99.90;;;;;;5074413;28;20352;-66
2022/10/26 01:41:24;;;;;;;13.40;9.43;;;10.80;99.90;;;;;;5074107;28;20305;-66
2022/10/26 01:44:03;;;;;;;13.57;9.10;;;10.80;99.90;;;;;;5073839;28;20703;-66
2022/10/26 01:46:35;;;;;;;14.50;9.40;;;10.80;99.90;;;;;;5073568;28;20302;-66
2022/10/26 01:49:06;;;;;;;12.00;8.83;;;10.70;99.90;;;;;;5074059;28;20278;-66
2022/10/26 01:51:34;;;;;;;10.93;9.53;;;10.70;99.90;;;;;;5073270;28;20663;-66
2022/10/26 01:54:00;;;;;;;13.53;9.60;;;10.70;99.90;;;;;;5073840;28;20275;-66
2022/10/26 01:56:33;;;;;;;12.93;8.93;;;10.70;99.90;;;;;;5074018;28;20604;-66
2022/10/26 01:59:11;;;;;;;13.30;9.67;;;10.70;99.90;;;;;;5073825;28;20055;-66
2022/10/26 02:01:43;;;;;;;12.13;8.77;;;10.70;99.90;;;;;;5074054;28;20462;-66
2022/10/26 02:04:14;;;;;;;13.93;9.50;;;10.70;99.90;;;;;;5074039;28;20626;-66
2022/10/26 02:06:51;;;;;;;12.67;9.03;;;10.60;99.90;;;;;;5074014;28;20661;-66
2022/10/26 02:09:23;;;;;;;15.13;9.03;;;10.60;99.90;;;;;;5074110;28;20287;-66
2022/10/26 02:11:51;;;;;;;14.63;9.87;;;10.60;99.90;;;;;;5073562;28;20283;-66
2022/10/26 02:14:35;;;;;;;12.90;9.43;;;10.60;99.90;;;;;;5073807;28;20283;-66
2022/10/26 02:17:21;;;;;;;13.30;8.90;;;10.50;99.90;;;;;;5072616;28;20275;-66
2022/10/26 02:19:53;;;;;;;16.98;8.50;;;10.50;99.90;;;;;;5073494;28;20283;-67
2022/10/26 02:22:24;;;;;;;20.53;8.90;;;10.50;99.90;;;;;;5073342;28;20090;-67
2022/10/26 02:24:52;;;;;;;14.97;8.97;;;10.50;99.90;;;;;;5073361;28;20703;-66
2022/10/26 02:27:26;;;;;;;16.53;9.00;;;10.50;99.90;;;;;;5073436;28;20291;-66
2022/10/26 02:29:55;;;;;;;13.77;8.57;;;10.50;99.90;;;;;;5073284;28;20282;-67
2022/10/26 02:32:28;;;;;;;14.00;9.07;;;10.50;99.90;;;;;;5072197;28;20592;-66
2022/10/26 02:34:56;;;;;;;14.23;9.63;;;10.60;99.90;;;;;;5073113;28;20362;-66
2022/10/26 02:37:24;;;;;;;17.13;9.97;;;10.50;99.90;;;;;;5072260;28;20279;-66
2022/10/26 02:39:51;;;;;;;16.67;10.93;;;10.50;99.90;;;;;;5072964;28;20283;-66
2022/10/26 02:42:18;;;;;;;17.77;12.30;;;10.50;99.90;;;;;;5073421;28;20299;-66
2022/10/26 02:45:02;;;;;;;21.07;11.73;;;10.50;99.90;;;;;;5073186;28;20332;-66
2022/10/26 02:47:28;;;;;;;17.57;12.60;;;10.50;99.90;;;;;;5072990;28;20297;-66
2022/10/26 02:49:54;;;;;;;15.80;12.03;;;10.50;99.90;;;;;;5072478;28;20385;-66
2022/10/26 02:52:54;;;;;;;22.53;13.03;;;10.50;99.90;;;;;;5073180;28;20754;-66
2022/10/26 02:55:29;;;;;;;16.47;12.70;;;10.50;99.90;;;;;;5073299;28;20612;-66
2022/10/26 02:57:59;;;;;;;20.02;12.80;;;10.40;99.90;;;;;;5072893;28;20279;-66
2022/10/26 03:00:25;;;;;;;20.20;14.53;;;10.40;99.90;;;;;;5073098;28;20044;-66
2022/10/26 03:02:53;;;;;;;21.70;13.57;;;10.40;99.90;;;;;;5072566;28;20356;-67
2022/10/26 03:05:27;;;;;;;18.63;12.33;;;10.40;99.90;;;;;;5072915;28;20279;-66
2022/10/26 03:07:54;;;;;;;20.60;13.53;;;10.40;99.90;;;;;;5072704;28;20818;-67
2022/10/26 03:10:21;;;;;;;18.17;14.13;;;10.40;99.90;;;;;;5071730;28;20294;-66
2022/10/26 03:12:47;;;;;;;18.37;13.87;;;10.40;99.90;;;;;;5072946;28;20618;-66
2022/10/26 03:15:12;;;;;;;18.60;14.23;;;10.40;99.90;;;;;;5072631;28;20281;-66
2022/10/26 03:17:38;;;;;;;20.40;14.27;;;10.40;99.90;;;;;;5072893;28;20283;-66
2022/10/26 03:20:04;;;;;;;22.87;15.43;;;10.40;99.90;;;;;;5072628;28;20443;-66
2022/10/26 03:22:30;;;;;;;21.23;13.93;;;10.40;99.90;;;;;;5072528;28;20044;-66
2022/10/26 03:24:56;;;;;;;20.43;14.23;;;10.30;99.90;;;;;;5072614;28;20275;-66
2022/10/26 03:27:22;;;;;;;25.53;14.77;;;10.30;99.90;;;;;;5072737;28;20484;-66
2022/10/26 03:29:47;;;;;;;20.03;15.27;;;10.30;99.90;;;;;;5075138;28;20127;-66
2022/10/26 03:32:13;;;;;;;18.13;15.03;;;10.30;99.90;;;;;;5076572;28;20040;-66
2022/10/26 03:34:39;;;;;;;20.50;15.03;;;10.30;99.90;;;;;;5076549;28;20040;-66
2022/10/26 03:37:05;;;;;;;27.43;15.33;;;10.30;99.90;;;;;;5058919;28;20052;-66
2022/10/26 03:39:30;;;;;;;18.10;13.77;;;10.30;99.90;;;;;;5076919;28;20049;-66
2022/10/26 03:41:56;;;;;;;20.27;14.87;;;10.30;99.90;;;;;;5076205;28;20047;-66
2022/10/26 03:44:22;;;;;;;20.47;14.70;;;10.30;99.90;;;;;;5076662;28;20131;-66
2022/10/26 03:46:48;;;;;;;23.43;15.07;;;10.30;99.90;;;;;;5075424;28;20048;-66
2022/10/26 03:49:13;;;;;;;19.60;14.20;;;10.30;99.90;;;;;;5076552;28;20090;-66
2022/10/26 03:51:39;;;;;;;22.60;14.37;;;10.30;99.90;;;;;;5076833;28;20041;-66
2022/10/26 03:54:05;;;;;;;20.73;13.80;;;10.30;99.90;;;;;;5076151;28;20040;-66
2022/10/26 03:56:30;;;;;;;20.43;15.27;;;10.30;99.90;;;;;;5076414;28;20052;-66
2022/10/26 03:58:56;;;;;;;21.17;14.13;;;10.30;99.90;;;;;;5076070;28;20094;-67
2022/10/26 04:01:22;;;;;;;17.73;14.63;;;10.20;99.90;;;;;;5076221;28;20072;-66
2022/10/26 04:03:48;;;;;;;18.57;14.30;;;10.30;99.90;;;;;;5076251;28;20050;-66
2022/10/26 04:06:13;;;;;;;17.97;14.37;;;10.30;99.90;;;;;;5076180;28;20041;-66
2022/10/26 04:08:39;;;;;;;22.67;13.87;;;10.30;99.90;;;;;;5076417;28;20054;-66
2022/10/26 04:11:05;;;;;;;17.23;13.63;;;10.30;99.90;;;;;;5075808;28;20455;-66
2022/10/26 04:13:31;;;;;;;19.00;14.33;;;10.30;99.90;;;;;;5076342;28;20048;-66
2022/10/26 04:15:57;;;;;;;18.83;14.33;;;10.40;99.90;;;;;;5075746;28;20059;-67
2022/10/26 04:18:23;;;;;;;20.07;14.33;;;10.40;99.90;;;;;;5076018;28;20045;-66
2022/10/26 04:20:48;;;;;;;17.47;14.50;;;10.40;99.90;;;;;;5075921;28;20499;-66
2022/10/26 04:23:15;;;;;;;21.20;13.77;;;10.40;99.90;;;;;;5075444;28;20059;-66
2022/10/26 04:25:42;;;;;;;18.27;13.60;;;10.40;99.90;;;;;;5075791;28;20054;-66
2022/10/26 04:28:09;;;;;;;22.47;13.93;;;10.50;99.90;;;;;;5075387;28;20278;-66
2022/10/26 04:30:36;;;;;;;20.27;13.67;;;10.50;99.90;;;;;;5075700;28;20287;-66
2022/10/26 04:33:03;;;;;;;19.97;14.07;;;10.50;99.90;;;;;;5075471;28;20335;-67
2022/10/26 04:35:29;;;;;;;19.03;14.00;;;10.50;99.90;;;;;;5075542;28;20278;-66
2022/10/26 04:38:03;;;;;;;21.83;13.97;;;10.50;99.90;;;;;;5074597;28;20298;-66
2022/10/26 04:40:30;;;;;;;18.10;13.53;;;10.50;99.90;;;;;;5073845;28;20345;-66
2022/10/26 04:42:55;;;;;;;21.97;14.33;;;10.50;99.90;;;;;;5074420;28;20307;-66
2022/10/26 04:45:21;;;;;;;20.20;14.03;;;10.50;99.90;;;;;;5075494;28;20279;-66
2022/10/26 04:47:47;;;;;;;22.27;14.63;;;10.50;99.90;;;;;;5075379;28;20489;-66
2022/10/26 04:50:13;;;;;;;18.27;13.77;;;10.60;99.90;;;;;;5075121;28;20269;-66
2022/10/26 04:52:39;;;;;;;18.73;13.90;;;10.50;99.90;;;;;;5075234;28;20040;-66
2022/10/26 04:55:06;;;;;;;21.27;13.23;;;10.50;99.90;;;;;;5074703;28;20774;-66
2022/10/26 04:57:33;;;;;;;19.47;12.87;;;10.60;99.90;;;;;;5075205;28;20290;-66
2022/10/26 05:00:00;;;;;;;20.17;13.47;;;10.60;99.90;;;;;;5075184;28;20288;-66
2022/10/26 05:02:27;;;;;;;18.70;14.33;;;10.60;99.90;;;;;;5074985;28;20291;-66
2022/10/26 05:04:52;;;;;;;18.90;13.63;;;10.60;99.90;;;;;;5074999;28;20286;-66
2022/10/26 05:07:18;;;;;;;19.83;14.03;;;10.60;99.90;;;;;;5075023;28;20275;-66
2022/10/26 05:09:44;;;;;;;22.07;14.83;;;10.60;99.90;;;;;;5075318;28;20481;-66
2022/10/26 05:12:09;;;;;;;20.63;14.97;;;10.70;99.90;;;;;;5074717;28;20469;-66
2022/10/26 05:14:35;;;;;;;22.07;14.00;;;10.70;99.90;;;;;;5074946;28;20050;-66
2022/10/26 05:17:01;;;;;;;20.03;14.33;;;10.70;99.90;;;;;;5074756;28;20098;-66
2022/10/26 05:19:26;;;;;;;21.63;14.93;;;10.70;99.90;;;;;;5074644;28;20131;-66
2022/10/26 05:21:52;;;;;;;22.67;14.80;;;10.70;99.90;;;;;;5074740;28;20546;-66
2022/10/26 05:24:18;;;;;;;19.10;12.80;;;10.80;99.90;;;;;;5074176;28;20407;-66
2022/10/26 05:26:44;;;;;;;18.70;14.27;;;10.80;99.90;;;;;;5074665;28;20048;-66
2022/10/26 05:29:10;;;;;;;20.87;14.27;;;10.80;99.90;;;;;;5074296;28;20289;-66
2022/10/26 05:31:35;;;;;;;20.90;13.77;;;10.80;99.90;;;;;;5074664;28;20047;-66
2022/10/26 05:34:01;;;;;;;19.50;13.10;;;10.80;99.90;;;;;;5074566;28;20075;-66
2022/10/26 05:36:27;;;;;;;20.40;14.30;;;10.80;99.90;;;;;;5073268;28;20088;-66
2022/10/26 05:38:56;;;;;;;21.40;14.90;;;10.80;99.90;;;;;;5074183;28;20052;-66
2022/10/26 05:41:21;;;;;;;20.67;13.33;;;10.80;99.90;;;;;;5072798;28;20102;-66
2022/10/26 05:43:47;;;;;;;22.97;14.77;;;10.80;99.90;;;;;;5074492;28;20287;-66
2022/10/26 05:46:13;;;;;;;22.07;14.50;;;10.80;99.90;;;;;;5074103;28;20045;-66
2022/10/26 05:48:39;;;;;;;19.57;14.10;;;10.90;99.90;;;;;;5074274;28;20439;-66
2022/10/26 05:51:04;;;;;;;20.37;14.83;;;10.90;99.90;;;;;;5073938;28;20047;-66
2022/10/26 05:53:30;;;;;;;17.63;13.37;;;10.90;99.90;;;;;;5073496;28;20076;-66
2022/10/26 05:55:56;;;;;;;18.63;13.63;;;10.80;99.90;;;;;;5074051;28;20468;-66
2022/10/26 05:58:23;;;;;;;20.17;13.67;;;10.90;99.90;;;;;;5072592;28;20391;-66
2022/10/26 06:01:10;;;;;;;22.83;14.93;;;10.90;99.90;;;;;;5073182;28;20640;-66
2022/10/26 06:03:44;;;;;;;16.67;13.57;;;10.90;99.90;;;;;;5074219;28;20282;-66
2022/10/26 06:06:12;;;;;;;18.48;14.40;;;10.90;99.90;;;;;;5073684;28;20278;-67
2022/10/26 06:08:38;;;;;;;22.20;14.40;;;11.00;99.90;;;;;;5074179;28;20059;-66
2022/10/26 06:11:04;;;;;;;22.90;13.90;;;11.00;99.90;;;;;;5073866;28;20287;-66
2022/10/26 06:13:30;;;;;;;20.33;14.00;;;11.00;99.90;;;;;;5072523;28;20131;-66
2022/10/26 06:16:13;;;;;;;16.67;12.27;;;11.00;99.90;;;;;;5073755;28;20361;-66
2022/10/26 06:18:46;;;;;;;19.63;13.30;;;11.00;99.90;;;;;;5074188;28;20541;-66
2022/10/26 06:21:34;;;;;;;21.80;13.07;;;11.10;99.90;;;;;;5073185;28;20294;-66
2022/10/26 06:24:13;;;;;;;16.87;12.70;;;11.10;99.90;;;;;;5072910;28;20302;-66
2022/10/26 06:26:47;;;;;;;21.13;12.60;;;11.10;99.90;;;;;;5073727;28;20325;-66
2022/10/26 06:29:21;;;;;;;15.63;13.40;;;11.10;99.90;;;;;;5071593;28;20770;-67
2022/10/26 06:31:47;;;;;;;19.90;12.53;;;11.10;99.90;;;;;;5072938;28;20055;-66
2022/10/26 06:34:20;;;;;;;14.83;12.67;;;11.10;99.90;;;;;;5072463;28;20369;-66
2022/10/26 06:36:47;;;;;;;17.57;12.87;;;11.10;99.90;;;;;;5072976;28;20044;-66
2022/10/26 06:39:15;;;;;;;20.37;12.80;;;11.10;99.90;;;;;;5072561;28;20279;-67
2022/10/26 06:41:41;;;;;;;17.23;12.77;;;11.10;99.90;;;;;;5072741;28;20305;-66
2022/10/26 06:44:11;;;;;;;19.37;12.57;;;11.10;99.90;;;;;;5073153;28;20283;-66
2022/10/26 06:46:50;;;;;;;19.30;11.90;;;11.10;99.90;;;;;;5072788;28;20053;-66
2022/10/26 06:49:28;;;;;;;20.57;13.67;;;11.10;99.90;;;;;;5073007;28;20318;-66
2022/10/26 06:52:02;;;;;;;16.63;12.43;;;11.10;99.90;;;;;;5073209;28;20314;-66
2022/10/26 06:54:50;;;;;;;18.35;12.98;;;11.10;99.90;;;;;;5072928;28;20334;-66
2022/10/26 06:57:18;;;;;;;15.83;11.77;;;11.10;99.90;;;;;;5072907;28;20051;-67
2022/10/26 06:59:54;;;;;;;16.43;11.63;;;11.20;99.90;;;;;;5073071;28;20274;-66
2022/10/26 07:02:20;;;;;;;15.60;11.20;;;11.20;99.90;;;;;;5072631;28;20301;-67
2022/10/26 07:04:46;;;;;;;15.80;11.33;;;11.20;99.90;;;;;;5072882;28;20361;-66
2022/10/26 07:07:18;;;;;;;18.13;11.23;;;11.20;99.90;;;;;;5072192;28;20088;-66
2022/10/26 07:09:44;;;;;;;16.33;11.10;;;11.30;99.90;;;;;;5072957;28;20286;-66
2022/10/26 07:12:10;;;;;;;18.07;11.17;;;11.30;99.90;;;;;;5072945;28;20298;-66
2022/10/26 07:14:36;;;;;;;18.33;12.10;;;11.40;99.90;;;;;;5071492;28;20278;-66
2022/10/26 07:17:02;;;;;;;17.57;10.83;;;11.40;99.90;;;;;;5073166;28;20105;-66
2022/10/26 07:19:27;;;;;;;15.50;11.33;;;11.40;99.90;;;;;;5071681;28;20412;-66
2022/10/26 07:22:00;;;;;;;19.63;10.57;;;11.50;99.90;;;;;;5072828;28;20310;-66
2022/10/26 07:24:27;;;;;;;15.77;9.73;;;11.60;99.90;;;;;;5072312;28;20060;-66
2022/10/26 07:26:54;;;;;;;17.63;10.23;;;11.60;99.90;;;;;;5072873;28;20283;-66
2022/10/26 07:29:20;;;;;;;17.83;10.10;;;11.60;99.90;;;;;;5072561;28;20619;-67
2022/10/26 07:31:46;;;;;;;16.37;9.93;;;11.70;99.90;;;;;;5072704;28;20271;-66
2022/10/26 07:34:12;;;;;;;14.60;9.10;;;11.70;99.90;;;;;;5072753;28;20293;-66
2022/10/26 07:36:38;;;;;;;17.63;9.77;;;11.80;99.90;;;;;;5072486;28;20102;-66
2022/10/26 07:39:07;;;;;;;20.60;9.63;;;11.80;99.90;;;;;;5072425;28;20049;-66
2022/10/26 07:41:33;;;;;;;14.43;9.40;;;11.80;99.90;;;;;;5072200;28;20322;-66
2022/10/26 07:43:59;;;;;;;16.00;9.50;;;11.90;99.90;;;;;;5072588;28;20777;-66
2022/10/26 07:46:25;;;;;;;13.27;8.30;;;11.90;99.90;;;;;;5071398;28;20290;-66
2022/10/26 07:48:51;;;;;;;15.10;8.33;;;12.00;99.90;;;;;;5072642;28;20396;-66
2022/10/26 07:51:16;;;;;;;15.13;8.37;;;12.10;99.90;;;;;;5072670;28;20287;-66
2022/10/26 07:53:42;;;;;;;13.90;8.30;;;12.10;99.90;;;;;;5072302;28;20501;-67
2022/10/26 07:56:09;;;;;;;16.57;8.10;;;12.20;99.90;;;;;;5072540;28;20044;-66
2022/10/26 07:58:35;;;;;;;13.17;7.90;;;12.20;99.90;;;;;;5072322;28;20043;-66
2022/10/26 08:01:08;;;;;;;12.70;7.60;;;12.30;99.90;;;;;;5072558;28;20345;-67
2022/10/26 08:03:34;;;;;;;14.80;7.43;;;12.50;99.90;;;;;;5072219;28;20291;-67
2022/10/26 08:06:01;;;;;;;17.97;8.23;;;12.60;99.90;;;;;;5072413;28;20301;-68
2022/10/26 08:08:27;;;;;;;12.20;7.67;;;12.60;99.90;;;;;;5072189;28;20123;-69
2022/10/26 08:10:53;;;;;;;12.60;7.13;;;12.70;99.90;;;;;;5072586;28;20707;-68
2022/10/26 08:13:18;;;;;;;16.30;7.27;;;12.70;99.90;;;;;;5072353;28;20052;-68
2022/10/26 08:15:44;;;;;;;10.23;7.10;;;12.70;99.90;;;;;;5074034;28;20051;-67
2022/10/26 08:18:10;;;;;;;13.50;7.73;;;12.70;99.90;;;;;;5076013;28;20041;-69
2022/10/26 08:20:35;;;;;;;10.13;6.17;;;12.70;99.90;;;;;;5075626;28;20123;-68
2022/10/26 08:23:05;;;;;;;13.13;6.97;;;12.80;99.90;;;;;;5075717;28;20041;-68
2022/10/26 08:25:31;;;;;;;12.27;6.73;;;12.80;99.90;;;;;;5075410;28;20503;-68
2022/10/26 08:28:01;;;;;;;11.13;6.80;;;12.90;99.90;;;;;;5075646;28;20290;-68
2022/10/26 08:30:27;;;;;;;12.73;6.10;;;12.90;99.90;;;;;;5074395;28;20275;-67
2022/10/26 08:33:05;;;;;;;10.93;6.10;;;13.00;99.90;;;;;;5075758;28;20279;-67
2022/10/26 08:35:32;;;;;;;9.47;5.80;;;13.10;99.90;;;;;;5075550;28;20275;-67
2022/10/26 08:37:58;;;;;;;12.33;5.37;;;13.20;99.90;;;;;;5075405;28;20440;-67
2022/10/26 08:40:37;;;;;;;9.63;5.57;;;13.20;99.90;;;;;;5074090;28;20389;-68
2022/10/26 08:43:22;;;;;;;11.40;6.23;;;13.30;99.90;;;;;;5075608;28;20113;-66
2022/10/26 08:45:56;;;;;;;12.40;5.57;;;13.30;99.90;;;;;;5075519;28;20279;-66
2022/10/26 08:48:31;;;;;;;11.97;4.97;;;13.40;99.90;;;;;;5075095;28;20286;-66
2022/10/26 08:51:05;;;;;;;10.93;5.30;;;13.40;99.90;;;;;;5075245;28;20399;-65
2022/10/26 08:54:08;;;;;;;11.87;5.40;;;13.50;99.90;;;;;;5074950;28;20048;-66
2022/10/26 08:56:44;;;;;;;7.20;5.20;;;13.50;99.90;;;;;;5074573;28;20671;-66
2022/10/26 08:59:54;;;;;;;12.17;5.20;;;13.50;99.90;;;;;;5074300;28;20782;-66
2022/10/26 09:02:20;;;;;;;10.13;5.27;;;13.60;99.90;;;;;;5074975;28;20341;-66
2022/10/26 09:04:46;;;;;;;10.20;5.27;;;13.60;99.90;;;;;;5074605;28;20281;-66
2022/10/26 09:07:29;;;;;;;11.80;5.50;;;13.60;99.90;;;;;;5074698;28;20278;-66
2022/10/26 09:10:07;;;;;;;10.33;5.87;;;13.70;99.90;;;;;;5075083;28;20040;-66
2022/10/26 09:13:13;;;;;;;9.63;5.87;;;13.70;99.90;;;;;;5074746;28;20745;-66
2022/10/26 09:15:42;;;;;;;11.03;5.07;;;13.80;99.90;;;;;;5072526;28;20302;-66
2022/10/26 09:18:30;;;;;;;10.03;5.23;;;13.80;99.90;;;;;;5073563;28;20302;-67
2022/10/26 09:21:22;;;;;;;9.17;4.50;;;13.90;99.90;;;;;;5074119;28;20317;-66
2022/10/26 09:24:02;;;;;;;9.00;4.57;;;13.90;99.90;;;;;;5074119;28;21194;-66
2022/10/26 09:26:37;;;;;;;10.23;5.33;;;13.80;99.90;;;;;;5074477;28;20291;-70
2022/10/26 09:29:10;;;;;;;12.03;5.73;;;13.90;99.90;;;;;;5074784;28;20413;-68
2022/10/26 09:31:46;;;;;;;11.53;5.27;;;13.90;99.90;;;;;;5074525;28;20326;-69
2022/10/26 09:34:41;;;;;;;11.63;5.37;;;13.90;99.90;;;;;;5070410;28;20356;-69
2022/10/26 09:37:21;;;;;;;17.13;5.00;;;14.00;99.90;;;;;;5064114;28;20643;-69
2022/10/26 09:40:10;;;;;;;10.87;5.30;;;14.10;99.90;;;;;;5074130;28;20060;-68
2022/10/26 09:42:47;;;;;;;13.37;4.90;;;14.10;99.90;;;;;;5074037;28;20303;-70
2022/10/26 09:45:31;;;;;;;9.97;5.40;;;14.10;99.90;;;;;;5074479;28;20278;-70
2022/10/26 09:48:19;;;;;;;12.67;5.67;;;14.10;99.90;;;;;;5074146;28;20283;-70
2022/10/26 09:50:50;;;;;;;10.07;4.67;;;14.10;99.90;;;;;;5073152;28;20298;-70
2022/10/26 09:53:15;;;;;;;8.47;5.10;;;14.20;99.90;;;;;;5073597;28;20283;-72
2022/10/26 09:55:47;;;;;;;8.30;5.30;;;14.20;99.90;;;;;;5073902;28;20274;-71
2022/10/26 09:58:27;;;;;;;9.30;4.67;;;14.20;99.90;;;;;;5073622;28;20491;-68
2022/10/26 10:00:53;;;;;;;11.97;4.60;;;14.30;99.90;;;;;;5073307;28;20278;-69
2022/10/26 10:03:39;;;;;;;9.30;4.23;;;14.30;99.90;;;;;;5072091;28;20295;-69
2022/10/26 10:06:17;;;;;;;9.87;4.23;;;14.40;99.90;;;;;;5073522;28;20105;-70
2022/10/26 10:08:45;;;;;;;11.03;3.90;;;14.60;99.90;;;;;;5073264;28;20052;-68
2022/10/26 10:11:13;;;;;;;10.43;3.80;;;14.70;99.90;;;;;;5073949;28;20285;-72
2022/10/26 10:13:41;;;;;;;8.53;3.60;;;14.90;99.90;;;;;;5073178;28;20497;-75
2022/10/26 10:16:20;;;;;;;9.57;3.90;;;15.00;99.90;;;;;;5073105;28;20508;-74
2022/10/26 10:18:54;;;;;;;12.53;3.50;;;15.10;99.90;;;;;;5073314;28;20040;-75
2022/10/26 10:21:20;;;;;;;8.00;3.80;;;15.20;99.90;;;;;;5073756;28;20048;-75
2022/10/26 10:23:52;;;;;;;8.37;3.50;;;15.20;99.90;;;;;;5071899;28;20105;-73
2022/10/26 10:26:19;;;;;;;9.30;3.20;;;15.30;99.90;;;;;;5073232;28;20041;-77
2022/10/26 10:28:59;;;;;;;11.57;3.73;;;15.40;99.90;;;;;;5072894;28;20485;-76
2022/10/26 10:31:32;;;;;;;9.47;3.20;;;15.50;99.90;;;;;;5073493;28;20044;-74
2022/10/26 10:33:58;;;;;;;11.27;3.47;;;15.50;99.90;;;;;;5073095;28;20048;-75
2022/10/26 10:36:29;;;;;;;10.77;4.13;;;15.60;99.90;;;;;;5071792;28;20036;-72
2022/10/26 10:38:55;;;;;;;9.57;3.77;;;15.60;99.90;;;;;;5071397;28;20048;-80
2022/10/26 10:41:29;;;;;;;7.33;2.80;;;15.70;99.90;;;;;;5073111;28;20036;-74
2022/10/26 10:44:26;;;;;;;7.72;3.08;;;15.70;99.90;;;;;;5072773;28;20048;-71
2022/10/26 10:47:00;;;;;;;8.47;3.63;;;15.80;99.90;;;;;;5071139;28;20495;-71
2022/10/26 10:49:27;;;;;;;9.88;3.30;;;15.80;99.90;;;;;;5069591;28;20048;-74
2022/10/26 10:51:54;;;;;;;8.73;3.00;;;15.90;99.90;;;;;;5071384;28;20047;-76
2022/10/26 10:54:33;;;;;;;9.63;3.73;;;16.00;99.90;;;;;;5072199;28;20052;-71
2022/10/26 10:57:07;;;;;;;7.50;2.70;;;16.00;99.90;;;;;;5072663;28;20086;-71
2022/10/26 10:59:39;;;;;;;9.50;3.45;;;16.00;99.90;;;;;;5073042;28;20049;-71
2022/10/26 11:02:05;;;;;;;8.33;2.90;;;16.00;99.90;;;;;;5073313;28;20415;-71
2022/10/26 11:04:49;;;;;;;7.63;3.10;;;16.00;99.90;;;;;;5072732;28;20056;-71
2022/10/26 11:07:17;;;;;;;8.93;3.03;;;16.00;99.90;;;;;;5073273;28;20052;-70
2022/10/26 11:09:45;;;;;;;11.60;3.20;;;16.00;99.90;;;;;;5072616;28;20048;-71
2022/10/26 11:12:16;;;;;;;9.33;3.20;;;16.00;99.90;;;;;;5071569;28;20033;-72
2022/10/26 11:14:45;;;;;;;7.37;2.63;;;16.00;99.90;;;;;;5071760;28;20052;-74
2022/10/26 11:17:26;;;;;;;11.70;3.37;;;16.00;99.90;;;;;;5072720;28;20123;-72
2022/10/26 11:20:01;;;;;;;7.33;3.30;;;16.00;99.90;;;;;;5071961;28;20071;-72
2022/10/26 11:22:44;;;;;;;11.20;3.27;;;16.00;99.90;;;;;;5072273;28;20045;-71
2022/10/26 11:25:24;;;;;;;11.73;3.17;;;16.00;99.90;;;;;;5073049;28;20099;-72
2022/10/26 11:27:59;;;;;;;9.30;3.23;;;16.00;99.90;;;;;;5069944;28;20044;-82
2022/10/26 11:30:25;;;;;;;;;;;16.00;99.90;;;;;;5061835;28;20052;-72
2022/10/26 11:32:53;;;;;;;10.40;3.60;;;16.00;99.90;;;;;;5052759;28;20352;-72
2022/10/26 11:35:26;;;;;;;9.80;3.20;;;16.00;99.90;;;;;;5051757;28;20041;-85
2022/10/26 11:38:07;;;;;;;8.27;3.30;;;16.00;99.90;;;;;;5050533;28;20127;-74
2022/10/26 11:40:44;;;;;;;13.63;3.70;;;16.00;99.90;;;;;;5052671;28;20041;-74
2022/10/26 11:43:34;;;;;;;8.97;3.80;;;16.10;99.90;;;;;;5052557;28;20051;-71
2022/10/26 11:46:17;;;;;;;8.90;3.17;;;16.10;99.90;;;;;;5051780;28;20060;-79
2022/10/26 11:49:04;;;;;;;11.40;3.70;;;16.10;99.90;;;;;;5052320;28;20139;-77
2022/10/26 11:51:40;;;;;;;7.87;3.90;;;16.20;99.90;;;;;;5055701;28;20088;-73
2022/10/26 11:54:20;;;;;;;8.17;4.10;;;16.20;99.90;;;;;;5056094;28;20095;-79
2022/10/26 11:56:52;;;;;;;8.43;3.90;;;16.20;99.90;;;;;;5056106;28;20424;-76
2022/10/26 11:59:21;;;;;;;8.70;4.17;;;16.20;99.90;;;;;;5055914;28;20051;-74
2022/10/26 12:01:55;;;;;;;9.20;4.20;;;16.30;99.90;;;;;;5087993;28;20053;-75
2022/10/26 12:04:26;;;;;;;10.63;4.13;;;16.30;99.90;;;;;;5056018;28;20122;-77
2022/10/26 12:06:55;;;;;;;9.67;4.70;;;16.30;99.90;;;;;;5088426;28;20107;-78
2022/10/26 12:09:30;;;;;;;14.20;5.13;;;16.30;99.90;;;;;;5054682;28;20055;-76
2022/10/26 12:12:12;;;;;;;9.57;4.80;;;16.40;99.90;;;;;;5087954;28;20041;-69
2022/10/26 12:14:56;;;;;;;16.30;4.90;;;16.40;99.90;;;;;;5068451;28;20126;-71
2022/10/26 12:17:33;;;;;;;12.88;4.53;;;16.40;99.90;;;;;;5075996;28;20048;-70
2022/10/26 12:20:06;;;;;;;10.23;5.00;;;16.40;99.90;;;;;;5075535;28;20143;-64
2022/10/26 12:22:36;;;;;;;11.73;5.37;;;16.40;99.90;;;;;;5075571;28;20036;-69
2022/10/26 12:25:07;;;;;;;11.97;5.10;;;16.50;99.90;;;;;;5075547;28;20060;-66
2022/10/26 12:27:38;;;;;;;13.33;5.10;;;16.50;99.90;;;;;;5075832;28;20079;-66
2022/10/26 12:30:16;;;;;;;8.87;4.30;;;16.50;99.90;;;;;;5075060;28;20507;-69
2022/10/26 12:32:48;;;;;;;8.87;4.57;;;16.50;99.90;;;;;;5099470;28;20141;-69
2022/10/26 12:35:39;;;;;;;17.13;6.47;;;16.60;99.90;;;;;;5075048;28;20431;-68
2022/10/26 12:38:23;;;;;;;11.57;5.63;;;16.60;99.90;;;;;;5075339;28;20055;-68
2022/10/26 12:41:20;;;;;;;14.67;5.73;;;16.50;99.90;;;;;;5075327;28;20048;-69
2022/10/26 12:43:46;;;;;;;11.90;6.67;;;16.60;99.90;;;;;;5075451;28;20053;-68
2022/10/26 12:46:11;;;;;;;15.67;7.13;;;16.60;99.90;;;;;;5075399;28;20047;-68
2022/10/26 12:48:41;;;;;;;17.13;7.27;;;16.60;99.90;;;;;;5075274;28;20056;-68
2022/10/26 12:51:21;;;;;;;14.00;6.93;;;16.60;99.90;;;;;;5074953;28;20144;-69
2022/10/26 12:54:01;;;;;;;13.90;6.90;;;16.60;99.90;;;;;;5075427;28;20132;-71
2022/10/26 12:56:41;;;;;;;15.03;6.10;;;16.70;99.90;;;;;;5075454;28;20142;-67
2022/10/26 12:59:22;;;;;;;11.40;5.93;;;16.70;99.90;;;;;;5074857;28;20111;-67